sensor_id;sensor_type;location;lat;lon;timestamp;temperature;humidity
44166;DHT22;30476;53.468;9.826;2024-02-26T00:01:38;5.60;99.90
44166;DHT22;30476;53.468;9.826;2024-02-26T00:04:04;5.60;99.90
44166;DHT22;30476;53.468;9.826;2024-02-26T00:06:30;5.60;99.90
44166;DHT22;30476;53.468;9.826;2024-02-26T00:08:56;5.50;99.90
44166;DHT22;30476;53.468;9.826;2024-02-26T00:11:22;5.40;99.90
44166;DHT22;30476;53.468;9.826;2024-02-26T00:13:48;5.40;99.90
44166;DHT22;30476;53.468;9.826;2024-02-26T00:16:14;5.30;99.90
44166;DHT22;30476;53.468;9.826;2024-02-26T00:18:39;5.30;99.90
44166;DHT22;30476;53.468;9.826;2024-02-26T00:21:05;5.20;99.90
44166;DHT22;30476;53.468;9.826;2024-02-26T00:23:31;5.10;99.90
44166;DHT22;30476;53.468;9.826;2024-02-26T00:25:57;5.10;99.90
44166;DHT22;30476;53.468;9.826;2024-02-26T00:28:23;5.10;99.90
44166;DHT22;30476;53.468;9.826;2024-02-26T00:30:50;5.10;99.90
44166;DHT22;30476;53.468;9.826;2024-02-26T00:33:21;5.10;99.90
44166;DHT22;30476;53.468;9.826;2024-02-26T00:35:48;5.10;99.90
44166;DHT22;30476;53.468;9.826;2024-02-26T00:38:14;5.00;99.90
44166;DHT22;30476;53.468;9.826;2024-02-26T00:40:40;5.00;99.90
44166;DHT22;30476;53.468;9.826;2024-02-26T00:43:06;5.00;99.90
44166;DHT22;30476;53.468;9.826;2024-02-26T00:45:32;4.90;99.90
44166;DHT22;30476;53.468;9.826;2024-02-26T00:47:58;4.90;99.90
44166;DHT22;30476;53.468;9.826;2024-02-26T00:50:27;4.80;99.90
44166;DHT22;30476;53.468;9.826;2024-02-26T00:52:52;4.80;99.90
44166;DHT22;30476;53.468;9.826;2024-02-26T00:55:18;4.80;99.90
44166;DHT22;30476;53.468;9.826;2024-02-26T00:57:44;4.80;99.90
44166;DHT22;30476;53.468;9.826;2024-02-26T01:00:10;4.70;99.90
44166;DHT22;30476;53.468;9.826;2024-02-26T01:02:36;4.60;99.90
44166;DHT22;30476;53.468;9.826;2024-02-26T01:05:02;4.60;99.90
44166;DHT22;30476;53.468;9.826;2024-02-26T01:07:28;4.60;99.90
44166;DHT22;30476;53.468;9.826;2024-02-26T01:09:54;4.60;99.90
44166;DHT22;30476;53.468;9.826;2024-02-26T01:12:20;4.50;99.90
44166;DHT22;30476;53.468;9.826;2024-02-26T01:14:45;4.50;99.90
44166;DHT22;30476;53.468;9.826;2024-02-26T01:17:11;4.40;99.90
44166;DHT22;30476;53.468;9.826;2024-02-26T01:19:37;4.40;99.90
44166;DHT22;30476;53.468;9.826;2024-02-26T01:22:03;4.40;99.90
44166;DHT22;30476;53.468;9.826;2024-02-26T01:24:29;4.40;99.90
44166;DHT22;30476;53.468;9.826;2024-02-26T01:26:55;4.30;99.90
44166;DHT22;30476;53.468;9.826;2024-02-26T01:29:20;4.30;99.90
44166;DHT22;30476;53.468;9.826;2024-02-26T01:31:46;4.30;99.90
44166;DHT22;30476;53.468;9.826;2024-02-26T01:34:12;4.20;99.90
44166;DHT22;30476;53.468;9.826;2024-02-26T01:36:38;4.20;99.90
44166;DHT22;30476;53.468;9.826;2024-02-26T01:39:04;4.20;99.90
44166;DHT22;30476;53.468;9.826;2024-02-26T01:41:30;4.10;99.90
44166;DHT22;30476;53.468;9.826;2024-02-26T01:43:55;4.10;99.90
44166;DHT22;30476;53.468;9.826;2024-02-26T01:46:21;4.10;99.90
44166;DHT22;30476;53.468;9.826;2024-02-26T01:48:48;4.00;99.90
44166;DHT22;30476;53.468;9.826;2024-02-26T01:51:15;4.00;99.90
44166;DHT22;30476;53.468;9.826;2024-02-26T01:53:43;4.00;99.90
44166;DHT22;30476;53.468;9.826;2024-02-26T01:56:09;3.90;99.90
44166;DHT22;30476;53.468;9.826;2024-02-26T01:58:35;3.90;99.90
44166;DHT22;30476;53.468;9.826;2024-02-26T02:01:02;3.90;99.90
44166;DHT22;30476;53.468;9.826;2024-02-26T02:03:29;3.90;99.90
44166;DHT22;30476;53.468;9.826;2024-02-26T02:05:55;3.90;99.90
44166;DHT22;30476;53.468;9.826;2024-02-26T02:08:22;3.80;99.90
44166;DHT22;30476;53.468;9.826;2024-02-26T02:10:49;3.80;99.90
44166;DHT22;30476;53.468;9.826;2024-02-26T02:13:15;3.80;99.90
44166;DHT22;30476;53.468;9.826;2024-02-26T02:15:41;3.80;99.90
44166;DHT22;30476;53.468;9.826;2024-02-26T02:18:07;3.70;99.90
44166;DHT22;30476;53.468;9.826;2024-02-26T02:20:34;3.70;99.90
44166;DHT22;30476;53.468;9.826;2024-02-26T02:23:00;3.60;99.90
44166;DHT22;30476;53.468;9.826;2024-02-26T02:25:25;3.60;99.90
44166;DHT22;30476;53.468;9.826;2024-02-26T02:27:53;3.60;99.90
44166;DHT22;30476;53.468;9.826;2024-02-26T02:30:21;3.50;99.90
44166;DHT22;30476;53.468;9.826;2024-02-26T02:32:47;3.50;99.90
44166;DHT22;30476;53.468;9.826;2024-02-26T02:35:12;3.50;99.90
44166;DHT22;30476;53.468;9.826;2024-02-26T02:37:38;3.50;99.90
44166;DHT22;30476;53.468;9.826;2024-02-26T02:40:05;3.40;99.90
44166;DHT22;30476;53.468;9.826;2024-02-26T02:42:30;3.50;99.90
44166;DHT22;30476;53.468;9.826;2024-02-26T02:44:56;3.40;99.90
44166;DHT22;30476;53.468;9.826;2024-02-26T02:47:22;3.40;99.90
44166;DHT22;30476;53.468;9.826;2024-02-26T02:49:47;3.40;99.90
44166;DHT22;30476;53.468;9.826;2024-02-26T02:52:13;3.40;99.90
44166;DHT22;30476;53.468;9.826;2024-02-26T02:54:39;3.40;99.90
44166;DHT22;30476;53.468;9.826;2024-02-26T02:57:08;3.40;99.90
44166;DHT22;30476;53.468;9.826;2024-02-26T02:59:34;3.30;99.90
44166;DHT22;30476;53.468;9.826;2024-02-26T03:02:00;3.30;99.90
44166;DHT22;30476;53.468;9.826;2024-02-26T03:04:26;3.30;99.90
44166;DHT22;30476;53.468;9.826;2024-02-26T03:06:52;3.30;99.90
44166;DHT22;30476;53.468;9.826;2024-02-26T03:09:17;3.20;99.90
44166;DHT22;30476;53.468;9.826;2024-02-26T03:11:43;3.20;99.90
44166;DHT22;30476;53.468;9.826;2024-02-26T03:14:09;3.20;99.90
44166;DHT22;30476;53.468;9.826;2024-02-26T03:16:35;3.20;99.90
44166;DHT22;30476;53.468;9.826;2024-02-26T03:19:01;3.20;99.90
44166;DHT22;30476;53.468;9.826;2024-02-26T03:21:27;3.20;99.90
44166;DHT22;30476;53.468;9.826;2024-02-26T03:23:53;3.20;99.90
44166;DHT22;30476;53.468;9.826;2024-02-26T03:26:19;3.20;99.90
44166;DHT22;30476;53.468;9.826;2024-02-26T03:28:44;3.20;99.90
44166;DHT22;30476;53.468;9.826;2024-02-26T03:31:10;3.10;99.90
44166;DHT22;30476;53.468;9.826;2024-02-26T03:33:36;3.10;99.90
44166;DHT22;30476;53.468;9.826;2024-02-26T03:36:02;3.10;99.90
44166;DHT22;30476;53.468;9.826;2024-02-26T03:38:29;3.00;99.90
44166;DHT22;30476;53.468;9.826;2024-02-26T03:40:55;3.00;99.90
44166;DHT22;30476;53.468;9.826;2024-02-26T03:43:21;3.10;99.90
44166;DHT22;30476;53.468;9.826;2024-02-26T03:45:47;3.00;99.90
44166;DHT22;30476;53.468;9.826;2024-02-26T03:48:13;3.00;99.90
44166;DHT22;30476;53.468;9.826;2024-02-26T03:50:39;3.00;99.90
44166;DHT22;30476;53.468;9.826;2024-02-26T03:53:05;3.00;99.90
44166;DHT22;30476;53.468;9.826;2024-02-26T03:55:31;3.00;99.90
44166;DHT22;30476;53.468;9.826;2024-02-26T03:57:57;3.00;99.90
44166;DHT22;30476;53.468;9.826;2024-02-26T04:00:22;2.90;99.90
44166;DHT22;30476;53.468;9.826;2024-02-26T04:02:48;2.90;99.90
44166;DHT22;30476;53.468;9.826;2024-02-26T04:05:14;3.00;99.90
44166;DHT22;30476;53.468;9.826;2024-02-26T04:07:40;2.90;99.90
44166;DHT22;30476;53.468;9.826;2024-02-26T04:10:10;2.90;99.90
44166;DHT22;30476;53.468;9.826;2024-02-26T04:12:39;2.90;99.90
44166;DHT22;30476;53.468;9.826;2024-02-26T04:15:06;2.90;99.90
44166;DHT22;30476;53.468;9.826;2024-02-26T04:17:32;2.90;99.90
44166;DHT22;30476;53.468;9.826;2024-02-26T04:19:58;2.90;99.90
44166;DHT22;30476;53.468;9.826;2024-02-26T04:22:23;2.90;99.90
44166;DHT22;30476;53.468;9.826;2024-02-26T04:24:49;2.90;99.90
44166;DHT22;30476;53.468;9.826;2024-02-26T04:27:15;2.90;99.90
44166;DHT22;30476;53.468;9.826;2024-02-26T04:29:41;2.90;99.90
44166;DHT22;30476;53.468;9.826;2024-02-26T04:32:06;2.90;99.90
44166;DHT22;30476;53.468;9.826;2024-02-26T04:34:32;2.90;99.90
44166;DHT22;30476;53.468;9.826;2024-02-26T04:36:58;2.90;99.90
44166;DHT22;30476;53.468;9.826;2024-02-26T04:39:24;2.90;99.90
44166;DHT22;30476;53.468;9.826;2024-02-26T04:41:49;2.90;99.90
44166;DHT22;30476;53.468;9.826;2024-02-26T04:44:15;2.80;99.90
44166;DHT22;30476;53.468;9.826;2024-02-26T04:46:41;2.80;99.90
44166;DHT22;30476;53.468;9.826;2024-02-26T04:49:07;2.80;99.90
44166;DHT22;30476;53.468;9.826;2024-02-26T04:51:32;2.80;99.90
44166;DHT22;30476;53.468;9.826;2024-02-26T04:53:58;2.80;99.90
44166;DHT22;30476;53.468;9.826;2024-02-26T04:56:25;2.80;99.90
44166;DHT22;30476;53.468;9.826;2024-02-26T04:58:51;2.80;99.90
44166;DHT22;30476;53.468;9.826;2024-02-26T05:01:17;2.90;99.90
44166;DHT22;30476;53.468;9.826;2024-02-26T05:03:44;2.80;99.90
44166;DHT22;30476;53.468;9.826;2024-02-26T05:06:10;2.70;99.90
44166;DHT22;30476;53.468;9.826;2024-02-26T05:08:36;2.80;99.90
44166;DHT22;30476;53.468;9.826;2024-02-26T05:11:03;2.80;99.90
44166;DHT22;30476;53.468;9.826;2024-02-26T05:13:29;2.80;99.90
44166;DHT22;30476;53.468;9.826;2024-02-26T05:15:55;2.70;99.90
44166;DHT22;30476;53.468;9.826;2024-02-26T05:18:22;2.70;99.90
44166;DHT22;30476;53.468;9.826;2024-02-26T05:20:48;2.70;99.90
44166;DHT22;30476;53.468;9.826;2024-02-26T05:23:13;2.70;99.90
44166;DHT22;30476;53.468;9.826;2024-02-26T05:25:39;2.70;99.90
44166;DHT22;30476;53.468;9.826;2024-02-26T05:28:05;2.70;99.90
44166;DHT22;30476;53.468;9.826;2024-02-26T05:30:31;2.70;99.90
44166;DHT22;30476;53.468;9.826;2024-02-26T05:32:57;2.60;99.90
44166;DHT22;30476;53.468;9.826;2024-02-26T05:35:23;2.60;99.90
44166;DHT22;30476;53.468;9.826;2024-02-26T05:37:48;2.60;99.90
44166;DHT22;30476;53.468;9.826;2024-02-26T05:40:14;2.60;99.90
44166;DHT22;30476;53.468;9.826;2024-02-26T05:42:40;2.70;99.90
44166;DHT22;30476;53.468;9.826;2024-02-26T05:45:06;2.60;99.90
44166;DHT22;30476;53.468;9.826;2024-02-26T05:47:33;2.60;99.90
44166;DHT22;30476;53.468;9.826;2024-02-26T05:49:58;2.50;99.90
44166;DHT22;30476;53.468;9.826;2024-02-26T05:52:26;2.50;99.90
44166;DHT22;30476;53.468;9.826;2024-02-26T05:54:53;2.50;99.90
44166;DHT22;30476;53.468;9.826;2024-02-26T05:57:19;2.50;99.90
44166;DHT22;30476;53.468;9.826;2024-02-26T05:59:45;2.50;99.90
44166;DHT22;30476;53.468;9.826;2024-02-26T06:02:11;2.50;99.90
44166;DHT22;30476;53.468;9.826;2024-02-26T06:04:36;2.40;99.90
44166;DHT22;30476;53.468;9.826;2024-02-26T06:07:02;2.50;99.90
44166;DHT22;30476;53.468;9.826;2024-02-26T06:09:28;2.50;99.90
44166;DHT22;30476;53.468;9.826;2024-02-26T06:11:54;2.50;99.90
44166;DHT22;30476;53.468;9.826;2024-02-26T06:14:20;2.50;99.90
44166;DHT22;30476;53.468;9.826;2024-02-26T06:16:46;2.50;99.90
44166;DHT22;30476;53.468;9.826;2024-02-26T06:19:12;2.50;99.90
44166;DHT22;30476;53.468;9.826;2024-02-26T06:21:38;2.50;99.90
44166;DHT22;30476;53.468;9.826;2024-02-26T06:24:04;2.50;99.90
44166;DHT22;30476;53.468;9.826;2024-02-26T06:26:29;2.50;99.90
44166;DHT22;30476;53.468;9.826;2024-02-26T06:28:55;2.60;99.90
44166;DHT22;30476;53.468;9.826;2024-02-26T06:31:22;2.50;99.90
44166;DHT22;30476;53.468;9.826;2024-02-26T06:33:49;2.60;99.90
44166;DHT22;30476;53.468;9.826;2024-02-26T06:36:16;2.60;99.90
44166;DHT22;30476;53.468;9.826;2024-02-26T06:38:42;2.60;99.90
44166;DHT22;30476;53.468;9.826;2024-02-26T06:41:07;2.60;99.90
44166;DHT22;30476;53.468;9.826;2024-02-26T06:43:33;2.60;99.90
44166;DHT22;30476;53.468;9.826;2024-02-26T06:45:59;2.70;99.90
44166;DHT22;30476;53.468;9.826;2024-02-26T06:48:25;2.70;99.90
44166;DHT22;30476;53.468;9.826;2024-02-26T06:50:50;2.60;99.90
44166;DHT22;30476;53.468;9.826;2024-02-26T06:53:16;2.70;99.90
44166;DHT22;30476;53.468;9.826;2024-02-26T06:55:42;2.70;99.90
44166;DHT22;30476;53.468;9.826;2024-02-26T06:58:08;2.80;99.90
44166;DHT22;30476;53.468;9.826;2024-02-26T07:00:34;2.80;99.90
44166;DHT22;30476;53.468;9.826;2024-02-26T07:03:00;2.80;99.90
44166;DHT22;30476;53.468;9.826;2024-02-26T07:05:27;2.80;99.90
44166;DHT22;30476;53.468;9.826;2024-02-26T07:07:53;2.80;99.90
44166;DHT22;30476;53.468;9.826;2024-02-26T07:10:19;2.90;99.90
44166;DHT22;30476;53.468;9.826;2024-02-26T07:12:44;2.80;99.90
44166;DHT22;30476;53.468;9.826;2024-02-26T07:15:10;2.90;99.90
44166;DHT22;30476;53.468;9.826;2024-02-26T07:17:36;2.90;99.90
44166;DHT22;30476;53.468;9.826;2024-02-26T07:20:02;2.90;99.90
44166;DHT22;30476;53.468;9.826;2024-02-26T07:22:31;2.90;99.90
44166;DHT22;30476;53.468;9.826;2024-02-26T07:24:57;2.90;99.90
44166;DHT22;30476;53.468;9.826;2024-02-26T07:27:23;3.00;99.90
44166;DHT22;30476;53.468;9.826;2024-02-26T07:29:49;3.00;99.90
44166;DHT22;30476;53.468;9.826;2024-02-26T07:32:14;3.00;99.90
44166;DHT22;30476;53.468;9.826;2024-02-26T07:34:41;3.10;99.90
44166;DHT22;30476;53.468;9.826;2024-02-26T07:37:11;3.10;99.90
44166;DHT22;30476;53.468;9.826;2024-02-26T07:39:36;3.10;99.90
44166;DHT22;30476;53.468;9.826;2024-02-26T07:42:03;3.20;99.90
44166;DHT22;30476;53.468;9.826;2024-02-26T07:44:28;3.20;99.90
44166;DHT22;30476;53.468;9.826;2024-02-26T07:46:54;3.20;99.90
44166;DHT22;30476;53.468;9.826;2024-02-26T07:49:20;3.20;99.90
44166;DHT22;30476;53.468;9.826;2024-02-26T07:51:46;3.20;99.90
44166;DHT22;30476;53.468;9.826;2024-02-26T07:54:11;3.30;99.90
44166;DHT22;30476;53.468;9.826;2024-02-26T07:56:37;3.30;99.90
44166;DHT22;30476;53.468;9.826;2024-02-26T07:59:03;3.30;99.90
44166;DHT22;30476;53.468;9.826;2024-02-26T08:01:29;3.30;99.90
44166;DHT22;30476;53.468;9.826;2024-02-26T08:03:55;3.40;99.90
44166;DHT22;30476;53.468;9.826;2024-02-26T08:06:21;3.40;99.90
44166;DHT22;30476;53.468;9.826;2024-02-26T08:08:47;3.50;99.90
44166;DHT22;30476;53.468;9.826;2024-02-26T08:11:15;3.50;99.90
44166;DHT22;30476;53.468;9.826;2024-02-26T08:13:41;3.50;99.90
44166;DHT22;30476;53.468;9.826;2024-02-26T08:16:07;3.50;99.90
44166;DHT22;30476;53.468;9.826;2024-02-26T08:18:33;3.60;99.90
44166;DHT22;30476;53.468;9.826;2024-02-26T08:20:59;3.60;99.90
44166;DHT22;30476;53.468;9.826;2024-02-26T08:23:25;3.70;99.90
44166;DHT22;30476;53.468;9.826;2024-02-26T08:25:51;3.70;99.90
44166;DHT22;30476;53.468;9.826;2024-02-26T08:28:17;3.80;99.90
44166;DHT22;30476;53.468;9.826;2024-02-26T08:30:44;3.90;99.90
44166;DHT22;30476;53.468;9.826;2024-02-26T08:33:10;3.90;99.90
44166;DHT22;30476;53.468;9.826;2024-02-26T08:35:36;3.90;99.90
44166;DHT22;30476;53.468;9.826;2024-02-26T08:38:02;4.00;99.90
44166;DHT22;30476;53.468;9.826;2024-02-26T08:40:28;4.10;99.90
44166;DHT22;30476;53.468;9.826;2024-02-26T08:42:54;4.10;99.90
44166;DHT22;30476;53.468;9.826;2024-02-26T08:45:20;4.20;99.90
44166;DHT22;30476;53.468;9.826;2024-02-26T08:47:46;4.30;99.90
44166;DHT22;30476;53.468;9.826;2024-02-26T08:50:12;4.30;99.90
44166;DHT22;30476;53.468;9.826;2024-02-26T08:52:38;4.40;99.90
44166;DHT22;30476;53.468;9.826;2024-02-26T08:55:04;4.40;99.90
44166;DHT22;30476;53.468;9.826;2024-02-26T08:57:31;4.50;99.90
44166;DHT22;30476;53.468;9.826;2024-02-26T09:00:00;4.60;99.90
44166;DHT22;30476;53.468;9.826;2024-02-26T09:02:26;4.70;99.90
44166;DHT22;30476;53.468;9.826;2024-02-26T09:04:52;4.80;99.90
44166;DHT22;30476;53.468;9.826;2024-02-26T09:07:21;4.80;99.90
44166;DHT22;30476;53.468;9.826;2024-02-26T09:09:47;5.00;99.90
44166;DHT22;30476;53.468;9.826;2024-02-26T09:12:12;5.00;99.90
44166;DHT22;30476;53.468;9.826;2024-02-26T09:14:38;5.10;99.90
44166;DHT22;30476;53.468;9.826;2024-02-26T09:17:04;5.20;99.90
44166;DHT22;30476;53.468;9.826;2024-02-26T09:19:31;5.20;99.90
44166;DHT22;30476;53.468;9.826;2024-02-26T09:21:57;5.40;99.90
44166;DHT22;30476;53.468;9.826;2024-02-26T09:24:24;5.40;99.90
44166;DHT22;30476;53.468;9.826;2024-02-26T09:26:50;5.40;99.90
44166;DHT22;30476;53.468;9.826;2024-02-26T09:29:16;5.50;99.90
44166;DHT22;30476;53.468;9.826;2024-02-26T09:31:42;5.60;99.90
44166;DHT22;30476;53.468;9.826;2024-02-26T09:34:08;5.60;99.90
44166;DHT22;30476;53.468;9.826;2024-02-26T09:36:34;5.70;99.90
44166;DHT22;30476;53.468;9.826;2024-02-26T09:38:59;5.70;99.90
44166;DHT22;30476;53.468;9.826;2024-02-26T09:41:28;5.70;99.90
44166;DHT22;30476;53.468;9.826;2024-02-26T09:43:57;5.80;99.90
44166;DHT22;30476;53.468;9.826;2024-02-26T09:46:26;5.90;99.90
44166;DHT22;30476;53.468;9.826;2024-02-26T09:48:52;5.90;99.90
44166;DHT22;30476;53.468;9.826;2024-02-26T09:51:18;5.90;99.90
44166;DHT22;30476;53.468;9.826;2024-02-26T09:53:46;6.00;99.90
44166;DHT22;30476;53.468;9.826;2024-02-26T09:56:13;6.00;99.90
44166;DHT22;30476;53.468;9.826;2024-02-26T09:58:39;6.10;99.90
44166;DHT22;30476;53.468;9.826;2024-02-26T10:01:11;6.20;99.90
44166;DHT22;30476;53.468;9.826;2024-02-26T10:03:40;6.20;99.90
44166;DHT22;30476;53.468;9.826;2024-02-26T10:06:08;6.30;99.90
44166;DHT22;30476;53.468;9.826;2024-02-26T10:08:35;6.30;99.90
44166;DHT22;30476;53.468;9.826;2024-02-26T10:11:01;6.40;99.90
44166;DHT22;30476;53.468;9.826;2024-02-26T10:13:26;6.40;99.90
44166;DHT22;30476;53.468;9.826;2024-02-26T10:15:52;6.50;99.90
44166;DHT22;30476;53.468;9.826;2024-02-26T10:18:18;6.60;99.90
44166;DHT22;30476;53.468;9.826;2024-02-26T10:21:01;6.60;99.90
44166;DHT22;30476;53.468;9.826;2024-02-26T10:23:27;6.60;99.90
44166;DHT22;30476;53.468;9.826;2024-02-26T10:25:54;6.60;99.90
44166;DHT22;30476;53.468;9.826;2024-02-26T10:28:20;6.70;99.90
44166;DHT22;30476;53.468;9.826;2024-02-26T10:30:46;6.80;99.90
44166;DHT22;30476;53.468;9.826;2024-02-26T10:33:12;6.90;99.90
44166;DHT22;30476;53.468;9.826;2024-02-26T10:35:44;7.00;99.90
44166;DHT22;30476;53.468;9.826;2024-02-26T10:38:10;7.00;99.90
44166;DHT22;30476;53.468;9.826;2024-02-26T10:40:37;7.10;99.90
44166;DHT22;30476;53.468;9.826;2024-02-26T10:43:02;7.20;99.90
44166;DHT22;30476;53.468;9.826;2024-02-26T10:45:28;7.20;99.90
44166;DHT22;30476;53.468;9.826;2024-02-26T10:47:54;7.20;99.90
44166;DHT22;30476;53.468;9.826;2024-02-26T10:50:20;7.30;99.90
44166;DHT22;30476;53.468;9.826;2024-02-26T10:52:46;7.40;99.90
44166;DHT22;30476;53.468;9.826;2024-02-26T10:55:16;7.40;99.90
44166;DHT22;30476;53.468;9.826;2024-02-26T10:57:45;7.50;99.90
44166;DHT22;30476;53.468;9.826;2024-02-26T11:00:15;7.50;99.90
44166;DHT22;30476;53.468;9.826;2024-02-26T11:02:41;7.70;99.90
44166;DHT22;30476;53.468;9.826;2024-02-26T11:05:09;7.70;99.90
44166;DHT22;30476;53.468;9.826;2024-02-26T11:07:36;7.80;99.90
44166;DHT22;30476;53.468;9.826;2024-02-26T11:10:04;7.90;99.90
44166;DHT22;30476;53.468;9.826;2024-02-26T11:12:32;8.00;99.90
44166;DHT22;30476;53.468;9.826;2024-02-26T11:14:58;8.10;99.90
44166;DHT22;30476;53.468;9.826;2024-02-26T11:17:28;8.10;99.90
44166;DHT22;30476;53.468;9.826;2024-02-26T11:19:58;8.20;99.90
44166;DHT22;30476;53.468;9.826;2024-02-26T11:22:27;8.20;99.90
44166;DHT22;30476;53.468;9.826;2024-02-26T11:24:53;8.30;99.90
44166;DHT22;30476;53.468;9.826;2024-02-26T11:27:44;8.30;99.90
44166;DHT22;30476;53.468;9.826;2024-02-26T11:30:10;8.40;99.90
44166;DHT22;30476;53.468;9.826;2024-02-26T11:32:37;8.50;99.90
44166;DHT22;30476;53.468;9.826;2024-02-26T11:35:05;8.50;99.90
44166;DHT22;30476;53.468;9.826;2024-02-26T11:37:31;8.60;99.90
44166;DHT22;30476;53.468;9.826;2024-02-26T11:39:59;8.60;99.90
44166;DHT22;30476;53.468;9.826;2024-02-26T11:42:25;8.60;99.90
44166;DHT22;30476;53.468;9.826;2024-02-26T11:44:52;8.70;99.90
44166;DHT22;30476;53.468;9.826;2024-02-26T11:47:20;8.70;99.90
44166;DHT22;30476;53.468;9.826;2024-02-26T11:49:47;8.70;99.90
44166;DHT22;30476;53.468;9.826;2024-02-26T11:52:14;8.80;99.90
44166;DHT22;30476;53.468;9.826;2024-02-26T11:54:45;8.80;99.90
44166;DHT22;30476;53.468;9.826;2024-02-26T11:59:47;8.90;99.90
44166;DHT22;30476;53.468;9.826;2024-02-26T12:02:40;8.90;99.90
44166;DHT22;30476;53.468;9.826;2024-02-26T12:05:24;8.90;99.90
44166;DHT22;30476;53.468;9.826;2024-02-26T12:12:58;9.00;99.90
44166;DHT22;30476;53.468;9.826;2024-02-26T12:15:24;9.10;99.90
44166;DHT22;30476;53.468;9.826;2024-02-26T12:17:52;9.10;99.90
44166;DHT22;30476;53.468;9.826;2024-02-26T12:20:18;9.20;99.90
44166;DHT22;30476;53.468;9.826;2024-02-26T12:22:46;9.20;99.90
44166;DHT22;30476;53.468;9.826;2024-02-26T12:25:15;9.30;99.90
44166;DHT22;30476;53.468;9.826;2024-02-26T12:27:41;9.30;99.90
44166;DHT22;30476;53.468;9.826;2024-02-26T12:30:07;9.40;99.90
44166;DHT22;30476;53.468;9.826;2024-02-26T12:32:34;9.40;99.90
44166;DHT22;30476;53.468;9.826;2024-02-26T12:35:00;9.40;99.90
44166;DHT22;30476;53.468;9.826;2024-02-26T12:37:27;9.40;99.90
44166;DHT22;30476;53.468;9.826;2024-02-26T12:39:53;9.40;99.90
44166;DHT22;30476;53.468;9.826;2024-02-26T12:42:19;9.50;99.90
44166;DHT22;30476;53.468;9.826;2024-02-26T12:44:46;9.50;99.90
44166;DHT22;30476;53.468;9.826;2024-02-26T12:47:12;9.50;99.90
44166;DHT22;30476;53.468;9.826;2024-02-26T12:49:48;9.60;99.90
44166;DHT22;30476;53.468;9.826;2024-02-26T12:52:15;9.60;99.90
44166;DHT22;30476;53.468;9.826;2024-02-26T12:54:42;9.60;99.90
44166;DHT22;30476;53.468;9.826;2024-02-26T12:57:08;9.60;99.90
44166;DHT22;30476;53.468;9.826;2024-02-26T12:59:35;9.60;99.90
44166;DHT22;30476;53.468;9.826;2024-02-26T13:02:02;9.70;99.90
44166;DHT22;30476;53.468;9.826;2024-02-26T13:04:29;9.70;99.90
44166;DHT22;30476;53.468;9.826;2024-02-26T13:06:56;9.70;99.90
44166;DHT22;30476;53.468;9.826;2024-02-26T13:09:26;9.70;99.90
44166;DHT22;30476;53.468;9.826;2024-02-26T13:11:55;9.70;99.90
44166;DHT22;30476;53.468;9.826;2024-02-26T13:14:21;9.80;99.90
44166;DHT22;30476;53.468;9.826;2024-02-26T13:16:57;9.80;99.90
44166;DHT22;30476;53.468;9.826;2024-02-26T13:19:23;9.80;99.90
44166;DHT22;30476;53.468;9.826;2024-02-26T13:21:49;9.90;99.90
44166;DHT22;30476;53.468;9.826;2024-02-26T13:24:15;10.00;99.90
44166;DHT22;30476;53.468;9.826;2024-02-26T13:26:42;10.00;99.90
44166;DHT22;30476;53.468;9.826;2024-02-26T13:29:08;10.10;99.90
44166;DHT22;30476;53.468;9.826;2024-02-26T13:31:40;10.10;99.90
44166;DHT22;30476;53.468;9.826;2024-02-26T13:34:06;10.00;99.90
44166;DHT22;30476;53.468;9.826;2024-02-26T13:36:31;10.10;99.90
44166;DHT22;30476;53.468;9.826;2024-02-26T13:38:57;10.10;99.90
44166;DHT22;30476;53.468;9.826;2024-02-26T13:41:23;10.10;99.90
44166;DHT22;30476;53.468;9.826;2024-02-26T13:43:50;10.10;99.90
44166;DHT22;30476;53.468;9.826;2024-02-26T13:46:16;10.10;99.90
44166;DHT22;30476;53.468;9.826;2024-02-26T13:48:45;10.00;99.90
44166;DHT22;30476;53.468;9.826;2024-02-26T13:51:11;10.00;99.90
44166;DHT22;30476;53.468;9.826;2024-02-26T13:53:37;10.00;99.90
44166;DHT22;30476;53.468;9.826;2024-02-26T13:56:03;9.90;99.90
44166;DHT22;30476;53.468;9.826;2024-02-26T13:58:31;9.90;99.90
44166;DHT22;30476;53.468;9.826;2024-02-26T14:00:57;9.90;99.90
44166;DHT22;30476;53.468;9.826;2024-02-26T14:03:23;9.90;99.90
44166;DHT22;30476;53.468;9.826;2024-02-26T14:05:49;9.90;99.90
44166;DHT22;30476;53.468;9.826;2024-02-26T14:08:15;9.90;99.90
44166;DHT22;30476;53.468;9.826;2024-02-26T14:10:41;9.90;99.90
44166;DHT22;30476;53.468;9.826;2024-02-26T14:13:07;9.90;99.90
44166;DHT22;30476;53.468;9.826;2024-02-26T14:15:34;10.00;99.90
44166;DHT22;30476;53.468;9.826;2024-02-26T14:18:01;10.00;99.90
44166;DHT22;30476;53.468;9.826;2024-02-26T14:20:28;10.10;99.90
44166;DHT22;30476;53.468;9.826;2024-02-26T14:22:54;10.00;99.90
44166;DHT22;30476;53.468;9.826;2024-02-26T14:25:21;10.10;99.90
44166;DHT22;30476;53.468;9.826;2024-02-26T14:27:47;10.00;99.90
44166;DHT22;30476;53.468;9.826;2024-02-26T14:30:13;10.00;99.90
44166;DHT22;30476;53.468;9.826;2024-02-26T14:32:39;10.00;99.90
44166;DHT22;30476;53.468;9.826;2024-02-26T14:35:06;10.00;99.90
44166;DHT22;30476;53.468;9.826;2024-02-26T14:37:33;9.90;99.90
44166;DHT22;30476;53.468;9.826;2024-02-26T14:39:59;9.90;99.90
44166;DHT22;30476;53.468;9.826;2024-02-26T14:42:25;9.90;99.90
44166;DHT22;30476;53.468;9.826;2024-02-26T14:44:50;9.90;99.90
44166;DHT22;30476;53.468;9.826;2024-02-26T14:47:16;9.80;99.90
44166;DHT22;30476;53.468;9.826;2024-02-26T14:49:43;9.80;99.90
44166;DHT22;30476;53.468;9.826;2024-02-26T14:52:09;9.70;99.90
44166;DHT22;30476;53.468;9.826;2024-02-26T14:54:35;9.70;99.90
44166;DHT22;30476;53.468;9.826;2024-02-26T14:57:05;9.70;99.90
44166;DHT22;30476;53.468;9.826;2024-02-26T14:59:31;9.50;99.90
44166;DHT22;30476;53.468;9.826;2024-02-26T15:01:57;9.40;99.90
44166;DHT22;30476;53.468;9.826;2024-02-26T15:04:26;9.40;99.90
44166;DHT22;30476;53.468;9.826;2024-02-26T15:06:51;9.30;99.90
44166;DHT22;30476;53.468;9.826;2024-02-26T15:09:17;9.30;99.90
44166;DHT22;30476;53.468;9.826;2024-02-26T15:11:43;9.20;99.90
44166;DHT22;30476;53.468;9.826;2024-02-26T15:14:10;9.10;99.90
44166;DHT22;30476;53.468;9.826;2024-02-26T15:16:36;9.10;99.90
44166;DHT22;30476;53.468;9.826;2024-02-26T15:19:03;9.20;99.90
44166;DHT22;30476;53.468;9.826;2024-02-26T15:21:29;9.10;99.90
44166;DHT22;30476;53.468;9.826;2024-02-26T15:23:55;9.10;99.90
44166;DHT22;30476;53.468;9.826;2024-02-26T15:26:21;9.00;99.90
44166;DHT22;30476;53.468;9.826;2024-02-26T15:28:48;9.00;99.90
44166;DHT22;30476;53.468;9.826;2024-02-26T15:31:16;8.90;99.90
44166;DHT22;30476;53.468;9.826;2024-02-26T15:33:42;8.90;99.90
44166;DHT22;30476;53.468;9.826;2024-02-26T15:36:08;8.80;99.90
44166;DHT22;30476;53.468;9.826;2024-02-26T15:38:37;8.80;99.90
44166;DHT22;30476;53.468;9.826;2024-02-26T15:41:11;8.70;99.90
44166;DHT22;30476;53.468;9.826;2024-02-26T15:43:37;8.70;99.90
44166;DHT22;30476;53.468;9.826;2024-02-26T15:46:03;8.70;99.90
44166;DHT22;30476;53.468;9.826;2024-02-26T15:48:30;8.70;99.90